Price, Canada
Current Conditions -  °F | °C
As of 8:00 AM on Thursday 30 Oct 2014 (Local Time) from CYYY Reporting Station
Few Clouds Few Clouds  
Wind Chill: 31°   Ceiling: Unl
Heat Index: 39°   Visibility: 30mi
Dew Point: 34°   Wind: 14mph
Humidity: 81%   Direction: 240°WSW
Pressure: 29.75"   Gusts: 20mph
Location:  48.6°N, 68.13°W
Report Text: CYYY 301200Z 24012G17KT 30SM FEW040 04/01 A2975 RMK SC2 SLP075
Loading
Personal Weather Stations






























Interactive Weather Map
Tropical Storm Tracking
New forecast layout! Learn more

10-Day Weather Forecast

Advertisements
Track Severe Weather on mobile